createdAt,value
2022-09-26T00:02:18.243Z,97417.59
2022-09-26T00:12:20.658Z,97414.88
2022-09-26T00:22:22.872Z,97408.13
2022-09-26T00:32:25.297Z,97401.09
2022-09-26T00:42:27.665Z,97394.94
2022-09-26T00:52:36.416Z,97390.38
2022-09-26T01:02:40.225Z,97369.03
2022-09-26T01:12:44.232Z,97357.66
2022-09-26T01:23:14.437Z,97347.41
2022-09-26T01:33:32.135Z,97339.66
2022-09-26T01:44:07.283Z,97341.53
2022-09-26T01:54:15.885Z,97326.16
2022-09-26T02:04:25.445Z,97313.19
2022-09-26T02:14:36.746Z,97309.44
2022-09-26T02:24:39.180Z,97300.28
2022-09-26T02:34:43.320Z,97292.19
2022-09-26T02:44:50.929Z,97284.31
2022-09-26T02:55:04.872Z,97277.59
2022-09-26T03:05:12.970Z,97277.66
2022-09-26T03:15:17.283Z,97282.63
2022-09-26T03:25:23.923Z,97277.34
2022-09-26T03:35:26.121Z,97263.34
2022-09-26T03:45:29.125Z,97265.03
2022-09-26T03:55:31.545Z,97258.81
2022-09-26T04:05:33.789Z,97238.00
2022-09-26T04:15:36.127Z,97231.22
2022-09-26T04:25:38.484Z,97226.59
2022-09-26T04:35:41.194Z,97216.34
2022-09-26T04:45:43.788Z,97196.56
2022-09-26T04:55:48.309Z,97182.78
2022-09-26T05:05:53.497Z,97185.25
2022-09-26T05:15:56.428Z,97179.38
2022-09-26T05:26:17.213Z,97174.28
2022-09-26T05:36:20.198Z,97163.72
2022-09-26T05:46:23.447Z,97173.75
2022-09-26T05:56:26.673Z,97174.78
2022-09-26T06:06:30.315Z,97161.50
2022-09-26T06:16:33.237Z,97161.22
2022-09-26T06:26:36.594Z,97157.47
2022-09-26T06:36:40.304Z,97154.53
2022-09-26T06:46:42.767Z,97161.41
2022-09-26T06:56:47.732Z,97147.50
2022-09-26T07:06:50.872Z,97144.28
2022-09-26T07:16:53.963Z,97127.25
2022-09-26T07:26:56.818Z,97124.62
2022-09-26T07:37:02.051Z,97123.12
2022-09-26T07:47:24.344Z,97119.78
2022-09-26T07:57:27.446Z,97125.47
2022-09-26T08:07:31.878Z,97125.25
2022-09-26T08:17:35.442Z,97132.56
2022-09-26T08:27:44.278Z,97135.87
2022-09-26T08:37:51.551Z,97116.44
2022-09-26T08:48:07.826Z,97112.28
2022-09-26T08:58:26.495Z,97116.84
2022-09-26T09:09:04.533Z,97105.63
2022-09-26T09:19:23.627Z,97096.81
2022-09-26T09:29:49.460Z,97091.84
2022-09-26T09:39:53.324Z,97084.28
2022-09-26T09:49:57.599Z,97072.97
2022-09-26T10:00:15.658Z,97056.75
2022-09-26T10:10:25.693Z,97052.34
2022-09-26T10:20:42.393Z,97048.09
2022-09-26T10:30:50.869Z,97034.94
2022-09-26T10:40:56.882Z,97036.63
2022-09-26T10:51:01.151Z,97014.84
2022-09-26T11:01:05.151Z,97020.69
2022-09-26T11:11:17.746Z,97007.94
2022-09-26T11:21:36.115Z,97005.03
2022-09-26T11:31:45.560Z,96996.38
2022-09-26T11:42:28.485Z,96979.19
2022-09-26T11:53:18.415Z,96970.47
2022-09-26T12:03:41.090Z,96956.78
2022-09-26T12:14:30.567Z,96939.03
2022-09-26T12:25:06.371Z,96928.31
2022-09-26T12:35:30.721Z,96910.22
2022-09-26T12:46:11.309Z,96887.94
2022-09-26T12:56:31.738Z,96876.50
2022-09-26T13:07:14.385Z,96862.19
2022-09-26T13:17:22.493Z,96844.19
2022-09-26T13:27:40.548Z,96830.94
2022-09-26T13:38:15.291Z,96817.00
2022-09-26T13:49:02.365Z,96807.50
2022-09-26T13:59:27.661Z,96785.84
2022-09-26T14:09:53.291Z,96772.13
2022-09-26T14:19:58.490Z,96772.78
2022-09-26T14:30:02.468Z,96749.31
2022-09-26T14:40:21.047Z,96739.31
2022-09-26T14:50:44.897Z,96734.50
2022-09-26T15:00:50.567Z,96713.78
2022-09-26T15:10:59.004Z,96702.00
2022-09-26T15:21:13.121Z,96702.16
2022-09-26T15:31:20.827Z,96691.75
2022-09-26T15:41:41.982Z,96674.38
2022-09-26T15:51:45.643Z,96661.28
2022-09-26T16:01:52.655Z,96668.78
2022-09-26T16:11:58.898Z,96664.91
2022-09-26T16:22:27.569Z,96666.16
2022-09-26T16:32:32.458Z,96662.09
2022-09-26T16:42:35.277Z,96657.69
2022-09-26T16:52:38.209Z,96656.78
2022-09-26T17:02:41.602Z,96656.69
2022-09-26T17:12:51.270Z,96648.94
2022-09-26T17:22:55.515Z,96655.84
2022-09-26T17:32:59.919Z,96649.19
2022-09-26T17:43:02.898Z,96637.78
2022-09-26T17:53:09.725Z,96625.75
2022-09-26T18:03:24.042Z,96598.91
2022-09-26T18:13:34.594Z,96585.28
2022-09-26T18:23:56.141Z,96577.28
2022-09-26T18:33:59.099Z,96576.31
2022-09-26T18:44:03.344Z,96573.09
2022-09-26T18:54:12.955Z,96580.28
2022-09-26T19:04:22.849Z,96591.75
2022-09-26T19:14:29.125Z,96591.66
2022-09-26T19:24:34.074Z,96594.41
2022-09-26T19:34:37.902Z,96600.31
2022-09-26T19:44:40.759Z,96602.66
2022-09-26T19:54:45.565Z,96597.25
2022-09-26T20:04:48.257Z,96590.34
2022-09-26T20:14:51.053Z,96569.47
2022-09-26T20:24:55.692Z,96562.78
2022-09-26T20:35:00.957Z,96539.00
2022-09-26T20:45:03.681Z,96522.47
2022-09-26T20:55:08.230Z,96495.66
2022-09-26T21:05:17.757Z,96480.25
2022-09-26T21:15:22.152Z,96456.69
2022-09-26T21:25:26.656Z,96441.69
2022-09-26T21:35:31.325Z,96420.78
2022-09-26T21:45:34.214Z,96394.97
2022-09-26T21:55:42.346Z,96382.53
2022-09-26T22:05:45.151Z,96377.53
2022-09-26T22:15:48.908Z,96371.91
2022-09-26T22:25:51.269Z,96362.28
2022-09-26T22:35:53.474Z,96325.19
2022-09-26T22:46:12.160Z,96280.97
2022-09-26T22:56:15.365Z,96263.28
2022-09-26T23:06:17.815Z,96261.78
2022-09-26T23:16:22.605Z,96241.88
2022-09-26T23:26:26.621Z,96239.19
2022-09-26T23:36:29.159Z,96246.66
2022-09-26T23:46:31.453Z,96241.88
2022-09-26T23:56:33.817Z,96246.88
